sensor_id;sensor_type;location;lat;lon;timestamp;P1;durP1;ratioP1;P2;durP2;ratioP2
66669;SDS011;53568;52.164;4.472;2023-03-21T00:02:01;17.20;;;17.19;;
66669;SDS011;53568;52.164;4.472;2023-03-21T00:04:27;18.00;;;17.80;;
66669;SDS011;53568;52.164;4.472;2023-03-21T00:06:52;18.15;;;18.00;;
66669;SDS011;53568;52.164;4.472;2023-03-21T00:09:19;18.59;;;18.46;;
66669;SDS011;53568;52.164;4.472;2023-03-21T00:11:45;18.65;;;18.65;;
66669;SDS011;53568;52.164;4.472;2023-03-21T00:14:11;18.32;;;18.30;;
66669;SDS011;53568;52.164;4.472;2023-03-21T00:16:44;17.32;;;17.27;;
66669;SDS011;53568;52.164;4.472;2023-03-21T00:19:14;17.59;;;17.37;;
66669;SDS011;53568;52.164;4.472;2023-03-21T00:21:41;17.62;;;17.53;;
66669;SDS011;53568;52.164;4.472;2023-03-21T00:24:07;17.01;;;17.00;;
66669;SDS011;53568;52.164;4.472;2023-03-21T00:26:33;17.11;;;17.04;;
66669;SDS011;53568;52.164;4.472;2023-03-21T00:28:59;17.25;;;17.24;;
66669;SDS011;53568;52.164;4.472;2023-03-21T00:31:25;17.49;;;17.34;;
66669;SDS011;53568;52.164;4.472;2023-03-21T00:33:51;17.25;;;17.00;;
66669;SDS011;53568;52.164;4.472;2023-03-21T00:36:16;18.07;;;18.06;;
66669;SDS011;53568;52.164;4.472;2023-03-21T00:38:42;19.11;;;19.11;;
66669;SDS011;53568;52.164;4.472;2023-03-21T00:41:09;18.24;;;18.23;;
66669;SDS011;53568;52.164;4.472;2023-03-21T00:43:36;18.78;;;18.78;;
66669;SDS011;53568;52.164;4.472;2023-03-21T00:46:02;19.08;;;19.08;;
66669;SDS011;53568;52.164;4.472;2023-03-21T00:48:28;19.27;;;19.05;;
66669;SDS011;53568;52.164;4.472;2023-03-21T00:50:54;18.45;;;18.44;;
66669;SDS011;53568;52.164;4.472;2023-03-21T00:53:23;18.59;;;18.59;;
66669;SDS011;53568;52.164;4.472;2023-03-21T00:55:49;18.26;;;18.26;;
66669;SDS011;53568;52.164;4.472;2023-03-21T00:58:15;18.00;;;18.00;;
66669;SDS011;53568;52.164;4.472;2023-03-21T01:00:42;17.82;;;17.82;;
66669;SDS011;53568;52.164;4.472;2023-03-21T01:03:09;17.51;;;17.50;;
66669;SDS011;53568;52.164;4.472;2023-03-21T01:05:38;17.19;;;17.18;;
66669;SDS011;53568;52.164;4.472;2023-03-21T01:08:25;17.27;;;17.26;;
66669;SDS011;53568;52.164;4.472;2023-03-21T01:10:52;17.86;;;17.80;;
66669;SDS011;53568;52.164;4.472;2023-03-21T01:13:20;17.67;;;17.64;;
66669;SDS011;53568;52.164;4.472;2023-03-21T01:15:52;18.82;;;18.81;;
66669;SDS011;53568;52.164;4.472;2023-03-21T01:18:20;19.02;;;19.02;;
66669;SDS011;53568;52.164;4.472;2023-03-21T01:20:50;19.72;;;19.28;;
66669;SDS011;53568;52.164;4.472;2023-03-21T01:23:15;19.44;;;19.27;;
66669;SDS011;53568;52.164;4.472;2023-03-21T01:25:41;18.92;;;18.81;;
66669;SDS011;53568;52.164;4.472;2023-03-21T01:28:07;18.98;;;18.90;;
66669;SDS011;53568;52.164;4.472;2023-03-21T01:30:34;18.31;;;18.28;;
66669;SDS011;53568;52.164;4.472;2023-03-21T01:33:00;17.69;;;17.67;;
66669;SDS011;53568;52.164;4.472;2023-03-21T01:35:26;17.87;;;17.78;;
66669;SDS011;53568;52.164;4.472;2023-03-21T01:37:51;16.40;;;16.40;;
66669;SDS011;53568;52.164;4.472;2023-03-21T01:40:18;17.55;;;17.41;;
66669;SDS011;53568;52.164;4.472;2023-03-21T01:42:49;16.80;;;16.63;;
66669;SDS011;53568;52.164;4.472;2023-03-21T01:48:18;16.10;;;16.06;;
66669;SDS011;53568;52.164;4.472;2023-03-21T01:50:47;15.95;;;15.93;;
66669;SDS011;53568;52.164;4.472;2023-03-21T01:53:15;15.90;;;15.83;;
66669;SDS011;53568;52.164;4.472;2023-03-21T01:55:46;15.82;;;15.77;;
66669;SDS011;53568;52.164;4.472;2023-03-21T01:58:14;16.25;;;16.20;;
66669;SDS011;53568;52.164;4.472;2023-03-21T02:00:43;16.28;;;16.10;;
66669;SDS011;53568;52.164;4.472;2023-03-21T02:03:10;15.98;;;15.76;;
66669;SDS011;53568;52.164;4.472;2023-03-21T02:08:20;16.31;;;16.31;;
66669;SDS011;53568;52.164;4.472;2023-03-21T02:10:47;16.13;;;16.07;;
66669;SDS011;53568;52.164;4.472;2023-03-21T02:13:15;16.36;;;16.25;;
66669;SDS011;53568;52.164;4.472;2023-03-21T02:15:42;16.07;;;16.07;;
66669;SDS011;53568;52.164;4.472;2023-03-21T02:18:25;16.18;;;15.88;;
66669;SDS011;53568;52.164;4.472;2023-03-21T02:37:41;16.53;;;16.52;;
66669;SDS011;53568;52.164;4.472;2023-03-21T02:40:26;16.37;;;16.36;;
66669;SDS011;53568;52.164;4.472;2023-03-21T02:43:16;16.66;;;16.64;;
66669;SDS011;53568;52.164;4.472;2023-03-21T02:45:53;16.26;;;16.21;;
66669;SDS011;53568;52.164;4.472;2023-03-21T02:48:39;15.85;;;15.85;;
66669;SDS011;53568;52.164;4.472;2023-03-21T02:51:15;16.38;;;16.38;;
66669;SDS011;53568;52.164;4.472;2023-03-21T02:53:47;17.48;;;17.48;;
66669;SDS011;53568;52.164;4.472;2023-03-21T02:56:17;17.46;;;17.46;;
66669;SDS011;53568;52.164;4.472;2023-03-21T02:58:44;17.97;;;17.97;;
66669;SDS011;53568;52.164;4.472;2023-03-21T03:01:12;18.65;;;18.65;;
66669;SDS011;53568;52.164;4.472;2023-03-21T03:03:38;18.65;;;18.60;;
66669;SDS011;53568;52.164;4.472;2023-03-21T03:06:08;18.45;;;18.39;;
66669;SDS011;53568;52.164;4.472;2023-03-21T03:08:59;18.00;;;18.00;;
66669;SDS011;53568;52.164;4.472;2023-03-21T03:11:42;18.23;;;18.17;;
66669;SDS011;53568;52.164;4.472;2023-03-21T03:19:23;18.10;;;18.06;;
66669;SDS011;53568;52.164;4.472;2023-03-21T03:22:26;17.09;;;17.09;;
66669;SDS011;53568;52.164;4.472;2023-03-21T03:24:56;17.16;;;17.02;;
66669;SDS011;53568;52.164;4.472;2023-03-21T03:27:30;16.93;;;16.86;;
66669;SDS011;53568;52.164;4.472;2023-03-21T03:30:01;16.77;;;16.70;;
66669;SDS011;53568;52.164;4.472;2023-03-21T03:32:36;16.03;;;16.03;;
66669;SDS011;53568;52.164;4.472;2023-03-21T03:35:13;16.50;;;16.46;;
66669;SDS011;53568;52.164;4.472;2023-03-21T03:37:43;16.07;;;16.01;;
66669;SDS011;53568;52.164;4.472;2023-03-21T03:40:14;16.44;;;16.40;;
66669;SDS011;53568;52.164;4.472;2023-03-21T03:42:47;16.34;;;16.16;;
66669;SDS011;53568;52.164;4.472;2023-03-21T03:45:18;16.03;;;15.98;;
66669;SDS011;53568;52.164;4.472;2023-03-21T03:50:29;15.45;;;15.34;;
66669;SDS011;53568;52.164;4.472;2023-03-21T03:56:06;15.04;;;14.91;;
66669;SDS011;53568;52.164;4.472;2023-03-21T03:58:35;14.42;;;14.25;;
66669;SDS011;53568;52.164;4.472;2023-03-21T04:01:03;14.41;;;14.28;;
66669;SDS011;53568;52.164;4.472;2023-03-21T04:03:29;14.27;;;14.10;;
66669;SDS011;53568;52.164;4.472;2023-03-21T04:05:56;13.93;;;13.88;;
66669;SDS011;53568;52.164;4.472;2023-03-21T04:08:22;13.31;;;13.28;;
66669;SDS011;53568;52.164;4.472;2023-03-21T04:10:49;12.96;;;12.90;;
66669;SDS011;53568;52.164;4.472;2023-03-21T04:13:15;13.82;;;13.66;;
66669;SDS011;53568;52.164;4.472;2023-03-21T04:15:40;13.22;;;13.14;;
66669;SDS011;53568;52.164;4.472;2023-03-21T04:18:08;13.22;;;13.11;;
66669;SDS011;53568;52.164;4.472;2023-03-21T04:20:34;13.36;;;13.23;;
66669;SDS011;53568;52.164;4.472;2023-03-21T04:22:59;13.73;;;13.65;;
66669;SDS011;53568;52.164;4.472;2023-03-21T04:25:25;12.84;;;12.72;;
66669;SDS011;53568;52.164;4.472;2023-03-21T04:27:52;13.49;;;13.47;;
66669;SDS011;53568;52.164;4.472;2023-03-21T04:30:20;13.32;;;13.29;;
66669;SDS011;53568;52.164;4.472;2023-03-21T04:32:49;13.64;;;13.57;;
66669;SDS011;53568;52.164;4.472;2023-03-21T04:35:18;13.37;;;13.25;;
66669;SDS011;53568;52.164;4.472;2023-03-21T04:37:45;14.03;;;13.94;;
66669;SDS011;53568;52.164;4.472;2023-03-21T04:40:10;13.64;;;13.52;;
66669;SDS011;53568;52.164;4.472;2023-03-21T04:42:37;14.36;;;14.20;;
66669;SDS011;53568;52.164;4.472;2023-03-21T04:45:02;14.86;;;14.70;;
66669;SDS011;53568;52.164;4.472;2023-03-21T04:47:28;15.00;;;14.84;;
66669;SDS011;53568;52.164;4.472;2023-03-21T04:49:54;14.78;;;14.73;;
66669;SDS011;53568;52.164;4.472;2023-03-21T04:52:21;15.02;;;14.96;;
66669;SDS011;53568;52.164;4.472;2023-03-21T04:54:47;14.54;;;14.40;;
66669;SDS011;53568;52.164;4.472;2023-03-21T04:57:13;14.76;;;14.69;;
66669;SDS011;53568;52.164;4.472;2023-03-21T04:59:38;14.59;;;14.49;;
66669;SDS011;53568;52.164;4.472;2023-03-21T05:02:04;14.60;;;14.43;;
66669;SDS011;53568;52.164;4.472;2023-03-21T05:04:30;14.98;;;14.83;;
66669;SDS011;53568;52.164;4.472;2023-03-21T05:06:56;15.22;;;15.10;;
66669;SDS011;53568;52.164;4.472;2023-03-21T05:09:22;15.11;;;15.00;;
66669;SDS011;53568;52.164;4.472;2023-03-21T05:11:49;15.20;;;15.01;;
66669;SDS011;53568;52.164;4.472;2023-03-21T05:14:19;15.31;;;15.10;;
66669;SDS011;53568;52.164;4.472;2023-03-21T05:16:48;14.80;;;14.70;;
66669;SDS011;53568;52.164;4.472;2023-03-21T05:19:20;15.58;;;15.49;;
66669;SDS011;53568;52.164;4.472;2023-03-21T05:22:06;15.77;;;15.63;;
66669;SDS011;53568;52.164;4.472;2023-03-21T05:24:34;16.36;;;16.32;;
66669;SDS011;53568;52.164;4.472;2023-03-21T05:27:05;16.29;;;16.14;;
66669;SDS011;53568;52.164;4.472;2023-03-21T05:29:31;15.80;;;15.66;;
66669;SDS011;53568;52.164;4.472;2023-03-21T05:31:58;15.49;;;15.36;;
66669;SDS011;53568;52.164;4.472;2023-03-21T05:34:25;15.96;;;15.83;;
66669;SDS011;53568;52.164;4.472;2023-03-21T05:36:52;16.71;;;16.45;;
66669;SDS011;53568;52.164;4.472;2023-03-21T05:39:18;17.08;;;16.83;;
66669;SDS011;53568;52.164;4.472;2023-03-21T05:41:44;16.84;;;16.71;;
66669;SDS011;53568;52.164;4.472;2023-03-21T05:44:10;16.81;;;16.65;;
66669;SDS011;53568;52.164;4.472;2023-03-21T05:46:36;16.84;;;16.67;;
66669;SDS011;53568;52.164;4.472;2023-03-21T05:49:01;17.70;;;17.65;;
66669;SDS011;53568;52.164;4.472;2023-03-21T05:51:27;17.82;;;17.61;;
66669;SDS011;53568;52.164;4.472;2023-03-21T05:53:53;18.74;;;18.37;;
66669;SDS011;53568;52.164;4.472;2023-03-21T05:56:18;18.40;;;18.32;;
66669;SDS011;53568;52.164;4.472;2023-03-21T05:58:44;18.96;;;18.93;;
66669;SDS011;53568;52.164;4.472;2023-03-21T06:01:09;18.64;;;18.43;;
66669;SDS011;53568;52.164;4.472;2023-03-21T06:03:35;18.41;;;18.25;;
66669;SDS011;53568;52.164;4.472;2023-03-21T06:06:00;18.50;;;18.32;;
66669;SDS011;53568;52.164;4.472;2023-03-21T06:08:27;18.44;;;18.25;;
66669;SDS011;53568;52.164;4.472;2023-03-21T06:10:54;18.31;;;18.14;;
66669;SDS011;53568;52.164;4.472;2023-03-21T06:13:20;18.21;;;18.13;;
66669;SDS011;53568;52.164;4.472;2023-03-21T06:15:45;18.83;;;18.57;;
66669;SDS011;53568;52.164;4.472;2023-03-21T06:18:11;18.14;;;17.88;;
66669;SDS011;53568;52.164;4.472;2023-03-21T06:20:36;18.27;;;18.00;;
66669;SDS011;53568;52.164;4.472;2023-03-21T06:23:02;18.54;;;18.28;;
66669;SDS011;53568;52.164;4.472;2023-03-21T06:25:27;18.06;;;17.80;;
66669;SDS011;53568;52.164;4.472;2023-03-21T06:27:53;18.25;;;17.92;;
66669;SDS011;53568;52.164;4.472;2023-03-21T06:30:18;18.19;;;17.94;;
66669;SDS011;53568;52.164;4.472;2023-03-21T06:32:44;17.38;;;17.20;;
66669;SDS011;53568;52.164;4.472;2023-03-21T06:35:10;17.67;;;17.44;;
66669;SDS011;53568;52.164;4.472;2023-03-21T06:37:35;17.23;;;17.00;;
66669;SDS011;53568;52.164;4.472;2023-03-21T06:40:02;17.59;;;17.37;;
66669;SDS011;53568;52.164;4.472;2023-03-21T06:42:30;17.36;;;17.14;;
66669;SDS011;53568;52.164;4.472;2023-03-21T06:44:56;17.54;;;17.25;;
66669;SDS011;53568;52.164;4.472;2023-03-21T06:47:22;17.38;;;17.23;;
66669;SDS011;53568;52.164;4.472;2023-03-21T06:49:48;16.97;;;16.79;;
66669;SDS011;53568;52.164;4.472;2023-03-21T06:52:14;17.22;;;16.92;;
66669;SDS011;53568;52.164;4.472;2023-03-21T06:54:39;16.29;;;16.20;;
66669;SDS011;53568;52.164;4.472;2023-03-21T06:57:05;16.47;;;16.39;;
66669;SDS011;53568;52.164;4.472;2023-03-21T06:59:30;16.37;;;16.24;;
66669;SDS011;53568;52.164;4.472;2023-03-21T07:01:56;17.03;;;16.82;;
66669;SDS011;53568;52.164;4.472;2023-03-21T07:04:21;16.77;;;16.65;;
66669;SDS011;53568;52.164;4.472;2023-03-21T07:06:47;16.35;;;16.20;;
66669;SDS011;53568;52.164;4.472;2023-03-21T07:09:13;16.03;;;15.90;;
66669;SDS011;53568;52.164;4.472;2023-03-21T07:11:41;15.48;;;15.42;;
66669;SDS011;53568;52.164;4.472;2023-03-21T07:14:07;14.35;;;14.33;;
66669;SDS011;53568;52.164;4.472;2023-03-21T07:16:33;13.80;;;13.79;;
66669;SDS011;53568;52.164;4.472;2023-03-21T07:18:58;13.06;;;13.03;;
66669;SDS011;53568;52.164;4.472;2023-03-21T07:21:24;13.59;;;13.49;;
66669;SDS011;53568;52.164;4.472;2023-03-21T07:23:49;13.46;;;13.33;;
66669;SDS011;53568;52.164;4.472;2023-03-21T07:26:15;13.23;;;13.11;;
66669;SDS011;53568;52.164;4.472;2023-03-21T07:28:42;12.91;;;12.80;;
66669;SDS011;53568;52.164;4.472;2023-03-21T07:31:11;12.48;;;12.39;;
66669;SDS011;53568;52.164;4.472;2023-03-21T07:33:39;12.57;;;12.52;;
66669;SDS011;53568;52.164;4.472;2023-03-21T07:36:08;12.57;;;12.52;;
66669;SDS011;53568;52.164;4.472;2023-03-21T07:38:36;13.34;;;13.17;;
66669;SDS011;53568;52.164;4.472;2023-03-21T07:41:02;12.89;;;12.87;;
66669;SDS011;53568;52.164;4.472;2023-03-21T07:43:27;12.58;;;12.57;;
66669;SDS011;53568;52.164;4.472;2023-03-21T07:45:56;12.32;;;12.28;;
66669;SDS011;53568;52.164;4.472;2023-03-21T07:48:23;12.74;;;12.63;;
66669;SDS011;53568;52.164;4.472;2023-03-21T07:50:49;12.62;;;12.46;;
66669;SDS011;53568;52.164;4.472;2023-03-21T07:53:15;13.61;;;13.50;;
66669;SDS011;53568;52.164;4.472;2023-03-21T07:55:40;13.26;;;13.22;;
66669;SDS011;53568;52.164;4.472;2023-03-21T07:58:06;13.37;;;13.35;;
66669;SDS011;53568;52.164;4.472;2023-03-21T08:00:32;13.30;;;13.20;;
66669;SDS011;53568;52.164;4.472;2023-03-21T08:02:57;13.68;;;13.60;;
66669;SDS011;53568;52.164;4.472;2023-03-21T08:05:24;13.83;;;13.77;;
66669;SDS011;53568;52.164;4.472;2023-03-21T08:07:52;14.20;;;14.19;;
66669;SDS011;53568;52.164;4.472;2023-03-21T08:10:17;14.32;;;14.25;;
66669;SDS011;53568;52.164;4.472;2023-03-21T08:12:44;14.67;;;14.51;;
66669;SDS011;53568;52.164;4.472;2023-03-21T08:15:10;15.15;;;15.02;;
66669;SDS011;53568;52.164;4.472;2023-03-21T08:17:38;15.18;;;14.92;;
66669;SDS011;53568;52.164;4.472;2023-03-21T08:20:04;14.42;;;14.37;;
66669;SDS011;53568;52.164;4.472;2023-03-21T08:22:32;13.84;;;13.83;;
66669;SDS011;53568;52.164;4.472;2023-03-21T08:24:58;13.83;;;13.79;;
66669;SDS011;53568;52.164;4.472;2023-03-21T08:27:23;13.55;;;13.48;;
66669;SDS011;53568;52.164;4.472;2023-03-21T08:29:49;13.33;;;13.29;;
66669;SDS011;53568;52.164;4.472;2023-03-21T08:32:16;13.15;;;13.11;;
66669;SDS011;53568;52.164;4.472;2023-03-21T08:34:43;13.41;;;13.38;;
66669;SDS011;53568;52.164;4.472;2023-03-21T08:37:08;12.87;;;12.84;;
66669;SDS011;53568;52.164;4.472;2023-03-21T08:39:34;12.69;;;12.63;;
66669;SDS011;53568;52.164;4.472;2023-03-21T08:42:00;12.49;;;12.39;;
66669;SDS011;53568;52.164;4.472;2023-03-21T08:44:25;12.33;;;12.27;;
66669;SDS011;53568;52.164;4.472;2023-03-21T08:46:51;11.71;;;11.69;;
66669;SDS011;53568;52.164;4.472;2023-03-21T08:49:16;11.69;;;11.66;;
66669;SDS011;53568;52.164;4.472;2023-03-21T08:51:42;10.89;;;10.87;;
66669;SDS011;53568;52.164;4.472;2023-03-21T08:54:19;10.79;;;10.78;;
66669;SDS011;53568;52.164;4.472;2023-03-21T08:56:45;10.67;;;10.62;;
66669;SDS011;53568;52.164;4.472;2023-03-21T08:59:11;10.31;;;10.27;;
66669;SDS011;53568;52.164;4.472;2023-03-21T09:01:37;10.25;;;10.25;;
66669;SDS011;53568;52.164;4.472;2023-03-21T09:04:02;9.36;;;9.36;;
66669;SDS011;53568;52.164;4.472;2023-03-21T09:06:32;9.85;;;9.85;;
66669;SDS011;53568;52.164;4.472;2023-03-21T09:08:58;9.82;;;9.82;;
66669;SDS011;53568;52.164;4.472;2023-03-21T09:11:23;10.02;;;9.98;;
66669;SDS011;53568;52.164;4.472;2023-03-21T09:13:49;9.74;;;9.73;;
66669;SDS011;53568;52.164;4.472;2023-03-21T09:16:15;10.29;;;10.29;;
66669;SDS011;53568;52.164;4.472;2023-03-21T09:18:41;10.57;;;10.51;;
66669;SDS011;53568;52.164;4.472;2023-03-21T09:21:11;10.78;;;10.75;;
66669;SDS011;53568;52.164;4.472;2023-03-21T09:23:39;10.35;;;10.35;;
66669;SDS011;53568;52.164;4.472;2023-03-21T09:26:05;10.54;;;10.54;;
66669;SDS011;53568;52.164;4.472;2023-03-21T09:28:33;10.76;;;10.74;;
66669;SDS011;53568;52.164;4.472;2023-03-21T09:31:01;10.89;;;10.87;;
66669;SDS011;53568;52.164;4.472;2023-03-21T09:33:28;11.11;;;11.10;;
66669;SDS011;53568;52.164;4.472;2023-03-21T09:35:54;10.75;;;10.74;;
66669;SDS011;53568;52.164;4.472;2023-03-21T09:38:20;11.35;;;11.32;;
66669;SDS011;53568;52.164;4.472;2023-03-21T09:48:49;11.81;;;11.80;;
66669;SDS011;53568;52.164;4.472;2023-03-21T09:51:33;11.32;;;11.30;;
66669;SDS011;53568;52.164;4.472;2023-03-21T09:54:37;12.04;;;12.03;;
66669;SDS011;53568;52.164;4.472;2023-03-21T09:57:04;12.48;;;12.47;;
66669;SDS011;53568;52.164;4.472;2023-03-21T09:59:51;12.81;;;12.81;;
66669;SDS011;53568;52.164;4.472;2023-03-21T10:02:25;12.32;;;12.28;;
66669;SDS011;53568;52.164;4.472;2023-03-21T10:05:00;12.82;;;12.81;;
66669;SDS011;53568;52.164;4.472;2023-03-21T10:07:37;12.95;;;12.95;;
66669;SDS011;53568;52.164;4.472;2023-03-21T10:10:09;13.37;;;13.37;;
66669;SDS011;53568;52.164;4.472;2023-03-21T10:12:42;12.67;;;12.67;;
66669;SDS011;53568;52.164;4.472;2023-03-21T10:15:10;13.25;;;13.22;;
66669;SDS011;53568;52.164;4.472;2023-03-21T10:17:42;13.03;;;13.00;;
66669;SDS011;53568;52.164;4.472;2023-03-21T10:20:23;13.29;;;13.24;;
66669;SDS011;53568;52.164;4.472;2023-03-21T10:22:52;13.09;;;13.08;;
66669;SDS011;53568;52.164;4.472;2023-03-21T10:25:33;12.79;;;12.77;;
66669;SDS011;53568;52.164;4.472;2023-03-21T10:28:01;12.60;;;12.54;;
66669;SDS011;53568;52.164;4.472;2023-03-21T10:30:34;12.25;;;12.22;;
66669;SDS011;53568;52.164;4.472;2023-03-21T10:33:06;12.59;;;12.56;;
66669;SDS011;53568;52.164;4.472;2023-03-21T10:35:37;13.22;;;13.21;;
66669;SDS011;53568;52.164;4.472;2023-03-21T10:38:09;13.30;;;13.30;;
66669;SDS011;53568;52.164;4.472;2023-03-21T10:40:41;13.74;;;13.71;;
66669;SDS011;53568;52.164;4.472;2023-03-21T10:43:17;13.82;;;13.80;;
66669;SDS011;53568;52.164;4.472;2023-03-21T10:45:49;14.34;;;14.33;;
66669;SDS011;53568;52.164;4.472;2023-03-21T10:48:15;14.43;;;14.43;;
66669;SDS011;53568;52.164;4.472;2023-03-21T10:50:41;15.46;;;15.38;;
66669;SDS011;53568;52.164;4.472;2023-03-21T10:55:46;15.23;;;15.23;;
66669;SDS011;53568;52.164;4.472;2023-03-21T10:58:17;14.68;;;14.67;;
66669;SDS011;53568;52.164;4.472;2023-03-21T11:01:10;14.91;;;14.91;;
66669;SDS011;53568;52.164;4.472;2023-03-21T11:03:41;15.69;;;15.69;;
66669;SDS011;53568;52.164;4.472;2023-03-21T11:08:47;15.68;;;15.68;;
66669;SDS011;53568;52.164;4.472;2023-03-21T11:11:24;15.64;;;15.64;;
66669;SDS011;53568;52.164;4.472;2023-03-21T11:13:59;15.87;;;15.87;;
66669;SDS011;53568;52.164;4.472;2023-03-21T11:16:41;15.46;;;15.46;;
66669;SDS011;53568;52.164;4.472;2023-03-21T11:19:15;15.79;;;15.79;;
66669;SDS011;53568;52.164;4.472;2023-03-21T11:21:43;15.51;;;15.51;;
66669;SDS011;53568;52.164;4.472;2023-03-21T11:24:13;15.91;;;15.91;;
66669;SDS011;53568;52.164;4.472;2023-03-21T11:26:44;15.60;;;15.60;;
66669;SDS011;53568;52.164;4.472;2023-03-21T11:29:22;15.69;;;15.69;;
66669;SDS011;53568;52.164;4.472;2023-03-21T11:31:51;14.75;;;14.74;;
66669;SDS011;53568;52.164;4.472;2023-03-21T11:34:24;13.06;;;13.06;;
66669;SDS011;53568;52.164;4.472;2023-03-21T11:37:00;12.61;;;12.61;;
66669;SDS011;53568;52.164;4.472;2023-03-21T11:39:29;12.56;;;12.56;;
66669;SDS011;53568;52.164;4.472;2023-03-21T11:41:57;11.92;;;11.92;;
66669;SDS011;53568;52.164;4.472;2023-03-21T11:44:25;10.31;;;10.30;;
66669;SDS011;53568;52.164;4.472;2023-03-21T11:47:09;9.53;;;9.53;;
66669;SDS011;53568;52.164;4.472;2023-03-21T11:49:35;9.93;;;9.93;;
66669;SDS011;53568;52.164;4.472;2023-03-21T11:57:41;8.44;;;8.44;;
66669;SDS011;53568;52.164;4.472;2023-03-21T12:00:32;7.68;;;7.68;;
66669;SDS011;53568;52.164;4.472;2023-03-21T12:06:00;9.22;;;9.22;;
66669;SDS011;53568;52.164;4.472;2023-03-21T12:11:13;11.43;;;11.43;;
66669;SDS011;53568;52.164;4.472;2023-03-21T12:14:24;12.32;;;12.32;;
66669;SDS011;53568;52.164;4.472;2023-03-21T12:17:05;11.68;;;11.68;;
66669;SDS011;53568;52.164;4.472;2023-03-21T12:20:05;10.88;;;10.88;;
66669;SDS011;53568;52.164;4.472;2023-03-21T12:25:41;9.51;;;9.51;;
66669;SDS011;53568;52.164;4.472;2023-03-21T12:28:23;9.81;;;9.81;;
66669;SDS011;53568;52.164;4.472;2023-03-21T12:37:03;12.70;;;12.70;;
66669;SDS011;53568;52.164;4.472;2023-03-21T12:39:34;12.91;;;12.91;;
66669;SDS011;53568;52.164;4.472;2023-03-21T12:45:47;13.50;;;13.50;;
66669;SDS011;53568;52.164;4.472;2023-03-21T12:47:46;13.03;;;13.03;;
66669;SDS011;53568;52.164;4.472;2023-03-21T12:50:25;12.21;;;12.21;;
66669;SDS011;53568;52.164;4.472;2023-03-21T12:52:58;11.99;;;11.99;;
66669;SDS011;53568;52.164;4.472;2023-03-21T12:55:50;11.83;;;11.83;;
66669;SDS011;53568;52.164;4.472;2023-03-21T12:58:21;10.86;;;10.86;;
66669;SDS011;53568;52.164;4.472;2023-03-21T13:00:56;11.10;;;11.10;;
66669;SDS011;53568;52.164;4.472;2023-03-21T13:03:34;10.92;;;10.92;;
66669;SDS011;53568;52.164;4.472;2023-03-21T13:06:04;13.11;;;13.11;;
66669;SDS011;53568;52.164;4.472;2023-03-21T13:11:21;9.54;;;9.54;;
66669;SDS011;53568;52.164;4.472;2023-03-21T13:14:00;9.29;;;9.29;;
66669;SDS011;53568;52.164;4.472;2023-03-21T13:16:42;8.81;;;8.81;;
66669;SDS011;53568;52.164;4.472;2023-03-21T13:22:21;9.18;;;9.18;;
66669;SDS011;53568;52.164;4.472;2023-03-21T13:24:59;8.61;;;8.61;;
66669;SDS011;53568;52.164;4.472;2023-03-21T13:27:30;8.44;;;8.44;;
66669;SDS011;53568;52.164;4.472;2023-03-21T13:32:29;8.50;;;8.50;;
66669;SDS011;53568;52.164;4.472;2023-03-21T13:35:12;8.76;;;8.75;;
66669;SDS011;53568;52.164;4.472;2023-03-21T13:37:48;8.78;;;8.78;;
66669;SDS011;53568;52.164;4.472;2023-03-21T13:40:25;8.53;;;8.53;;
66669;SDS011;53568;52.164;4.472;2023-03-21T13:42:58;9.20;;;9.20;;
66669;SDS011;53568;52.164;4.472;2023-03-21T13:45:43;8.61;;;8.61;;
66669;SDS011;53568;52.164;4.472;2023-03-21T13:48:31;9.43;;;9.43;;
66669;SDS011;53568;52.164;4.472;2023-03-21T13:56:25;13.98;;;13.98;;
66669;SDS011;53568;52.164;4.472;2023-03-21T13:58:57;15.61;;;15.61;;
66669;SDS011;53568;52.164;4.472;2023-03-21T14:01:26;15.30;;;15.30;;
66669;SDS011;53568;52.164;4.472;2023-03-21T14:04:14;13.48;;;13.48;;
66669;SDS011;53568;52.164;4.472;2023-03-21T14:06:43;10.84;;;10.84;;
66669;SDS011;53568;52.164;4.472;2023-03-21T14:09:32;8.91;;;8.91;;
66669;SDS011;53568;52.164;4.472;2023-03-21T14:12:15;8.73;;;8.73;;
66669;SDS011;53568;52.164;4.472;2023-03-21T14:14:58;8.34;;;8.34;;
66669;SDS011;53568;52.164;4.472;2023-03-21T14:17:30;7.70;;;7.70;;
66669;SDS011;53568;52.164;4.472;2023-03-21T14:20:14;7.58;;;7.58;;
66669;SDS011;53568;52.164;4.472;2023-03-21T14:22:45;7.78;;;7.78;;
66669;SDS011;53568;52.164;4.472;2023-03-21T14:25:12;7.73;;;7.73;;
66669;SDS011;53568;52.164;4.472;2023-03-21T14:27:44;7.64;;;7.64;;
66669;SDS011;53568;52.164;4.472;2023-03-21T14:30:59;7.80;;;7.80;;
66669;SDS011;53568;52.164;4.472;2023-03-21T14:35:51;7.34;;;7.34;;
66669;SDS011;53568;52.164;4.472;2023-03-21T14:38:21;7.59;;;7.59;;
66669;SDS011;53568;52.164;4.472;2023-03-21T14:40:51;7.04;;;7.04;;
66669;SDS011;53568;52.164;4.472;2023-03-21T14:43:19;6.97;;;6.97;;
66669;SDS011;53568;52.164;4.472;2023-03-21T14:45:48;7.19;;;7.19;;
66669;SDS011;53568;52.164;4.472;2023-03-21T14:48:17;7.48;;;7.48;;
66669;SDS011;53568;52.164;4.472;2023-03-21T14:50:54;7.32;;;7.32;;
66669;SDS011;53568;52.164;4.472;2023-03-21T14:53:25;7.53;;;7.53;;
66669;SDS011;53568;52.164;4.472;2023-03-21T14:58:28;6.88;;;6.88;;
66669;SDS011;53568;52.164;4.472;2023-03-21T15:00:56;6.55;;;6.55;;
66669;SDS011;53568;52.164;4.472;2023-03-21T15:03:28;6.29;;;6.29;;
66669;SDS011;53568;52.164;4.472;2023-03-21T15:05:56;6.50;;;6.50;;
66669;SDS011;53568;52.164;4.472;2023-03-21T15:08:24;6.16;;;6.16;;
66669;SDS011;53568;52.164;4.472;2023-03-21T15:13:21;4.97;;;4.97;;
66669;SDS011;53568;52.164;4.472;2023-03-21T15:15:52;4.69;;;4.69;;
66669;SDS011;53568;52.164;4.472;2023-03-21T15:18:26;4.93;;;4.93;;
66669;SDS011;53568;52.164;4.472;2023-03-21T15:20:56;5.00;;;5.00;;
66669;SDS011;53568;52.164;4.472;2023-03-21T15:23:32;5.04;;;5.04;;
66669;SDS011;53568;52.164;4.472;2023-03-21T15:26:04;4.39;;;4.39;;
66669;SDS011;53568;52.164;4.472;2023-03-21T15:28:34;3.99;;;3.99;;
66669;SDS011;53568;52.164;4.472;2023-03-21T15:31:00;3.75;;;3.75;;
66669;SDS011;53568;52.164;4.472;2023-03-21T15:33:26;3.84;;;3.84;;
66669;SDS011;53568;52.164;4.472;2023-03-21T15:35:55;3.86;;;3.86;;
66669;SDS011;53568;52.164;4.472;2023-03-21T15:38:35;3.77;;;3.77;;
66669;SDS011;53568;52.164;4.472;2023-03-21T15:43:47;3.55;;;3.55;;
66669;SDS011;53568;52.164;4.472;2023-03-21T15:46:30;3.78;;;3.78;;
66669;SDS011;53568;52.164;4.472;2023-03-21T15:51:58;3.90;;;3.90;;
66669;SDS011;53568;52.164;4.472;2023-03-21T15:54:43;3.82;;;3.82;;
66669;SDS011;53568;52.164;4.472;2023-03-21T15:57:32;4.05;;;4.05;;
66669;SDS011;53568;52.164;4.472;2023-03-21T16:00:00;4.21;;;4.21;;
66669;SDS011;53568;52.164;4.472;2023-03-21T16:02:36;4.36;;;4.36;;
66669;SDS011;53568;52.164;4.472;2023-03-21T16:05:23;4.60;;;4.60;;
66669;SDS011;53568;52.164;4.472;2023-03-21T16:07:51;4.70;;;4.70;;
66669;SDS011;53568;52.164;4.472;2023-03-21T16:10:24;5.03;;;5.03;;
66669;SDS011;53568;52.164;4.472;2023-03-21T16:12:52;5.66;;;5.66;;
66669;SDS011;53568;52.164;4.472;2023-03-21T16:15:18;5.68;;;5.68;;
66669;SDS011;53568;52.164;4.472;2023-03-21T16:17:51;5.18;;;5.18;;
66669;SDS011;53568;52.164;4.472;2023-03-21T16:20:21;4.14;;;4.14;;
66669;SDS011;53568;52.164;4.472;2023-03-21T16:22:50;3.81;;;3.81;;